createdAt,value
2023-04-27T00:01:24.990Z,100994.38
2023-04-27T00:03:57.170Z,101003.84
2023-04-27T00:06:24.066Z,101003.03
2023-04-27T00:08:51.095Z,101001.31
2023-04-27T00:11:20.174Z,100993.25
2023-04-27T00:13:46.696Z,100996.81
2023-04-27T00:16:13.434Z,100996.63
2023-04-27T00:18:40.059Z,100996.53
2023-04-27T00:21:09.491Z,101002.00
2023-04-27T00:23:36.513Z,100999.28
2023-04-27T00:26:03.213Z,100994.88
2023-04-27T00:28:29.731Z,101000.38
2023-04-27T00:30:58.637Z,101005.00
2023-04-27T00:33:27.222Z,100996.66
2023-04-27T00:35:53.839Z,101001.06
2023-04-27T00:38:21.049Z,100993.97
2023-04-27T00:40:50.774Z,100998.19
2023-04-27T00:43:20.456Z,101002.69
2023-04-27T00:45:47.226Z,100989.09
2023-04-27T00:48:13.863Z,100998.84
2023-04-27T00:50:40.850Z,101001.28
2023-04-27T00:53:08.004Z,100998.59
2023-04-27T00:55:34.691Z,100990.53
2023-04-27T00:58:02.392Z,100991.44
2023-04-27T01:00:31.903Z,100990.47
2023-04-27T01:02:58.602Z,100991.44
2023-04-27T01:05:33.706Z,100986.44
2023-04-27T01:08:00.440Z,100981.97
2023-04-27T01:10:27.254Z,100992.41
2023-04-27T01:12:57.572Z,100997.97
2023-04-27T01:15:26.556Z,100997.56
2023-04-27T01:18:02.661Z,100996.28
2023-04-27T01:20:30.487Z,101000.59
2023-04-27T01:22:57.415Z,100996.69
2023-04-27T01:25:52.099Z,100988.88
2023-04-27T01:28:20.815Z,101002.19
2023-04-27T01:30:47.353Z,101004.81
2023-04-27T01:33:14.054Z,100993.44
2023-04-27T01:35:40.618Z,100997.91
2023-04-27T01:38:07.340Z,100999.09
2023-04-27T01:40:33.969Z,100993.66
2023-04-27T01:43:01.057Z,100999.16
2023-04-27T01:45:29.170Z,101005.31
2023-04-27T01:47:56.188Z,101010.78
2023-04-27T01:50:22.754Z,101014.00
2023-04-27T01:59:23.725Z,101020.19
2023-04-27T02:01:54.143Z,101028.19
2023-04-27T02:04:21.116Z,101028.44
2023-04-27T02:06:47.835Z,101030.78
2023-04-27T02:09:14.683Z,101037.06
2023-04-27T02:11:41.444Z,101033.63
2023-04-27T02:14:08.044Z,101041.75
2023-04-27T02:16:34.681Z,101046.94
2023-04-27T02:19:01.695Z,101046.16
2023-04-27T02:21:29.564Z,101047.69
2023-04-27T02:23:56.491Z,101055.63
2023-04-27T02:26:29.228Z,101054.88
2023-04-27T02:29:03.855Z,101054.13
2023-04-27T02:31:31.270Z,101059.28
2023-04-27T02:33:57.911Z,101063.00
2023-04-27T02:36:25.081Z,101064.78
2023-04-27T02:38:56.782Z,101066.34
2023-04-27T02:41:23.718Z,101066.44
2023-04-27T02:43:50.541Z,101071.78
2023-04-27T02:46:17.142Z,101070.19
2023-04-27T02:48:43.721Z,101073.69
2023-04-27T02:51:10.399Z,101077.19
2023-04-27T02:53:36.967Z,101075.53
2023-04-27T02:56:03.703Z,101071.06
2023-04-27T02:58:30.993Z,101070.19
2023-04-27T03:00:57.863Z,101066.88
2023-04-27T03:03:24.737Z,101060.72
2023-04-27T03:05:53.874Z,101068.50
2023-04-27T03:08:20.429Z,101071.06
2023-04-27T03:10:48.628Z,101074.56
2023-04-27T03:13:15.956Z,101069.31
2023-04-27T03:15:43.643Z,101070.25
2023-04-27T03:18:11.387Z,101069.31
2023-04-27T03:20:38.099Z,101071.88
2023-04-27T03:23:04.940Z,101076.22
2023-04-27T03:25:31.494Z,101079.22
2023-04-27T03:27:58.087Z,101072.75
2023-04-27T03:30:24.649Z,101083.06
2023-04-27T03:32:51.466Z,101075.00
2023-04-27T03:35:19.277Z,101078.78
2023-04-27T03:37:46.191Z,101082.13
2023-04-27T03:40:14.439Z,101088.38
2023-04-27T03:42:43.865Z,101082.53
2023-04-27T03:45:12.215Z,101089.66
2023-04-27T03:47:39.088Z,101090.53
2023-04-27T03:50:05.946Z,101084.25
2023-04-27T03:52:32.469Z,101080.66
2023-04-27T03:54:59.055Z,101093.22
2023-04-27T03:57:26.349Z,101096.81
2023-04-27T03:59:53.309Z,101102.13
2023-04-27T04:02:22.145Z,101096.94
2023-04-27T04:04:48.961Z,101097.97
2023-04-27T04:07:15.540Z,101103.03
2023-04-27T04:09:43.374Z,101098.72
2023-04-27T04:12:10.773Z,101102.50
2023-04-27T04:14:39.670Z,101101.72
2023-04-27T04:17:06.287Z,101104.28
2023-04-27T04:19:33.868Z,101106.19
2023-04-27T04:22:01.049Z,101107.63
2023-04-27T04:24:27.628Z,101110.88
2023-04-27T04:26:54.219Z,101109.38
2023-04-27T04:29:24.244Z,101110.47
2023-04-27T04:31:51.390Z,101115.84
2023-04-27T04:34:21.771Z,101122.69
2023-04-27T04:36:51.674Z,101115.41
2023-04-27T04:39:21.785Z,101120.09
2023-04-27T04:41:49.503Z,101116.44
2023-04-27T04:44:16.810Z,101121.91
2023-04-27T04:46:44.588Z,101125.53
2023-04-27T04:49:12.120Z,101125.75
2023-04-27T04:51:42.347Z,101127.59
2023-04-27T04:54:09.104Z,101129.31
2023-04-27T04:56:35.910Z,101122.47
2023-04-27T04:59:03.771Z,101129.41
2023-04-27T05:01:31.918Z,101130.41
2023-04-27T05:04:01.234Z,101143.38
2023-04-27T05:09:08.555Z,101142.47
2023-04-27T05:11:35.133Z,101136.13
2023-04-27T05:14:01.837Z,101141.53
2023-04-27T05:16:31.611Z,101148.44
2023-04-27T05:19:00.631Z,101145.81
2023-04-27T05:21:27.163Z,101143.16
2023-04-27T05:23:53.806Z,101141.56
2023-04-27T05:26:21.205Z,101156.56
2023-04-27T05:28:50.759Z,101150.41
2023-04-27T05:31:19.897Z,101157.44
2023-04-27T05:33:49.299Z,101150.16
2023-04-27T05:36:16.049Z,101155.31
2023-04-27T05:38:45.687Z,101157.38
2023-04-27T05:41:12.324Z,101145.72
2023-04-27T05:43:39.017Z,101156.84
2023-04-27T05:46:08.656Z,101154.75
2023-04-27T05:48:35.430Z,101158.59
2023-04-27T05:51:02.872Z,101161.88
2023-04-27T05:53:30.259Z,101177.72
2023-04-27T05:55:59.276Z,101166.94
2023-04-27T05:58:26.028Z,101168.81
2023-04-27T06:00:53.728Z,101172.59
2023-04-27T06:03:20.614Z,101182.75
2023-04-27T06:05:47.377Z,101174.41
2023-04-27T06:08:14.059Z,101174.72
2023-04-27T06:10:40.864Z,101177.09
2023-04-27T06:13:07.464Z,101175.44
2023-04-27T06:15:39.550Z,101169.38
2023-04-27T06:18:06.299Z,101180.50
2023-04-27T06:20:32.885Z,101181.28
2023-04-27T06:23:08.801Z,101183.59
2023-04-27T06:25:37.547Z,101187.03
2023-04-27T06:28:06.423Z,101184.25
2023-04-27T06:30:36.499Z,101182.34
2023-04-27T06:33:04.283Z,101186.97
2023-04-27T06:35:31.581Z,101195.25
2023-04-27T06:37:58.948Z,101197.81
2023-04-27T06:40:26.370Z,101190.50
2023-04-27T06:42:53.219Z,101202.16
2023-04-27T06:45:19.749Z,101194.72
2023-04-27T06:47:46.590Z,101202.28
2023-04-27T06:50:14.090Z,101203.94
2023-04-27T06:52:40.786Z,101203.00
2023-04-27T06:55:07.624Z,101199.13
2023-04-27T06:57:34.240Z,101200.56
2023-04-27T07:00:02.938Z,101196.47
2023-04-27T07:02:29.555Z,101203.75
2023-04-27T07:04:56.213Z,101201.94
2023-04-27T07:07:22.865Z,101200.75
2023-04-27T07:09:49.414Z,101210.22
2023-04-27T07:12:16.214Z,101205.59
2023-04-27T07:14:43.256Z,101211.84
2023-04-27T07:17:13.017Z,101208.34
2023-04-27T07:19:39.706Z,101207.50
2023-04-27T07:22:06.354Z,101214.53
2023-04-27T07:24:33.257Z,101209.81
2023-04-27T07:27:02.697Z,101211.69
2023-04-27T07:29:30.635Z,101210.31
2023-04-27T07:31:58.414Z,101206.34
2023-04-27T07:34:25.077Z,101208.50
2023-04-27T07:36:54.353Z,101205.03
2023-04-27T07:39:21.290Z,101211.28
2023-04-27T07:41:48.478Z,101208.06
2023-04-27T07:44:15.173Z,101209.50
2023-04-27T07:46:44.897Z,101203.91
2023-04-27T07:49:14.318Z,101215.63
2023-04-27T07:51:41.130Z,101211.94
2023-04-27T07:54:07.904Z,101207.56
2023-04-27T07:56:34.416Z,101216.09
2023-04-27T07:59:01.400Z,101226.84
2023-04-27T08:01:28.068Z,101207.09
2023-04-27T08:03:54.808Z,101213.66
2023-04-27T08:06:22.105Z,101213.41
2023-04-27T08:08:49.149Z,101208.25
2023-04-27T08:11:15.780Z,101198.09
2023-04-27T08:13:43.185Z,101210.88
2023-04-27T08:16:12.912Z,101213.88
2023-04-27T08:18:39.531Z,101213.22
2023-04-27T08:21:08.446Z,101213.94
2023-04-27T08:23:37.154Z,101207.78
2023-04-27T08:26:06.106Z,101212.50
2023-04-27T08:28:32.702Z,101200.97
2023-04-27T08:31:02.142Z,101216.19
2023-04-27T08:33:28.790Z,101205.25
2023-04-27T08:35:55.623Z,101205.38
2023-04-27T08:38:25.669Z,101211.34
2023-04-27T08:40:52.352Z,101202.56
2023-04-27T08:43:18.874Z,101198.09
2023-04-27T08:45:49.777Z,101197.13
2023-04-27T08:48:16.524Z,101196.34
2023-04-27T08:50:44.751Z,101208.28
2023-04-27T08:53:23.943Z,101199.56
2023-04-27T08:55:51.401Z,101198.44
2023-04-27T08:58:18.007Z,101197.72
2023-04-27T09:00:46.121Z,101178.91
2023-04-27T09:03:22.184Z,101184.91
2023-04-27T09:06:03.055Z,101183.59
2023-04-27T09:08:50.609Z,101179.88
2023-04-27T09:11:28.376Z,101189.56
2023-04-27T09:13:55.400Z,101191.69
2023-04-27T09:16:26.413Z,101192.94
2023-04-27T09:18:53.392Z,101190.09
2023-04-27T09:21:27.807Z,101191.47
2023-04-27T09:23:55.054Z,101183.81
2023-04-27T09:26:23.042Z,101177.47
2023-04-27T09:28:51.962Z,101175.00
2023-04-27T09:31:18.898Z,101181.34
2023-04-27T09:33:46.130Z,101177.28
2023-04-27T09:36:12.907Z,101184.91
2023-04-27T09:38:39.643Z,101179.00
2023-04-27T09:41:09.473Z,101173.78
2023-04-27T09:43:37.231Z,101169.16
2023-04-27T09:46:04.438Z,101165.41
2023-04-27T09:48:31.330Z,101161.53
2023-04-27T09:50:57.905Z,101162.72
2023-04-27T09:53:52.950Z,101167.22
2023-04-27T09:56:38.424Z,101173.75
2023-04-27T09:59:17.399Z,101171.06
2023-04-27T10:01:48.770Z,101164.31
2023-04-27T10:04:34.607Z,101158.22
2023-04-27T10:07:05.413Z,101170.66
2023-04-27T10:09:58.351Z,101175.44
2023-04-27T10:12:32.852Z,101170.34
2023-04-27T10:15:00.739Z,101168.72
2023-04-27T10:17:34.470Z,101170.47
2023-04-27T10:20:02.359Z,101169.06
2023-04-27T10:22:45.335Z,101176.56
2023-04-27T10:25:18.340Z,101171.06
2023-04-27T10:28:03.456Z,101166.97
2023-04-27T10:30:39.524Z,101171.19
2023-04-27T10:33:10.992Z,101165.22
2023-04-27T10:35:40.254Z,101171.09
2023-04-27T10:38:08.623Z,101166.16
2023-04-27T10:40:35.939Z,101169.50
2023-04-27T10:43:16.251Z,101178.28
2023-04-27T10:45:43.648Z,101165.63
2023-04-27T10:48:13.062Z,101163.88
2023-04-27T10:50:40.539Z,101174.91
2023-04-27T10:53:10.096Z,101166.88
2023-04-27T10:55:37.105Z,101158.91
2023-04-27T10:58:04.465Z,101170.97
2023-04-27T11:00:34.876Z,101174.44
2023-04-27T11:03:15.146Z,101167.47
2023-04-27T11:05:42.915Z,101163.13
2023-04-27T11:08:11.305Z,101160.91
2023-04-27T11:10:43.445Z,101161.53
2023-04-27T11:13:15.591Z,101161.81
2023-04-27T11:15:46.223Z,101160.56
2023-04-27T11:18:13.117Z,101171.22
2023-04-27T11:20:39.712Z,101174.88
2023-04-27T11:23:06.382Z,101168.69
2023-04-27T11:25:35.102Z,101164.50
2023-04-27T11:28:01.723Z,101160.38
2023-04-27T11:30:28.438Z,101164.09
2023-04-27T11:32:55.109Z,101159.78
2023-04-27T11:35:32.135Z,101151.81
2023-04-27T11:38:01.883Z,101147.59
2023-04-27T11:40:34.719Z,101144.78
2023-04-27T11:43:06.955Z,101147.66
2023-04-27T11:45:34.190Z,101144.19
2023-04-27T11:48:03.136Z,101159.81
2023-04-27T11:50:29.819Z,101157.09
2023-04-27T11:53:00.822Z,101161.59
2023-04-27T11:55:27.391Z,101154.06
2023-04-27T11:58:05.928Z,101151.53
2023-04-27T12:00:32.649Z,101164.28
2023-04-27T12:03:03.470Z,101156.97
2023-04-27T12:05:30.436Z,101171.03
2023-04-27T12:07:57.241Z,101168.19
2023-04-27T12:10:24.614Z,101165.50
2023-04-27T12:12:51.977Z,101169.88
2023-04-27T12:15:18.566Z,101175.25
2023-04-27T12:17:45.148Z,101169.59
2023-04-27T12:20:12.151Z,101166.84
2023-04-27T12:22:38.986Z,101164.16
2023-04-27T12:25:06.030Z,101164.63
2023-04-27T12:27:32.618Z,101163.22
2023-04-27T12:29:59.716Z,101158.59
2023-04-27T12:32:29.676Z,101147.69
2023-04-27T12:34:56.296Z,101155.78
2023-04-27T12:37:29.379Z,101141.22
2023-04-27T12:39:58.723Z,101144.63
2023-04-27T12:42:25.421Z,101141.50
2023-04-27T12:44:52.547Z,101135.06
2023-04-27T12:47:40.573Z,101142.41
2023-04-27T12:50:07.650Z,101144.94
2023-04-27T12:52:34.197Z,101145.66
2023-04-27T12:55:13.067Z,101142.44
2023-04-27T12:57:44.899Z,101151.03
2023-04-27T13:00:11.717Z,101149.75
2023-04-27T13:02:38.410Z,101143.00
2023-04-27T13:05:07.845Z,101147.56
2023-04-27T13:07:34.896Z,101144.44
2023-04-27T13:10:02.019Z,101148.16
2023-04-27T13:12:28.708Z,101145.56
2023-04-27T13:14:55.237Z,101145.03
2023-04-27T13:17:21.784Z,101150.47
2023-04-27T13:19:48.323Z,101129.88
2023-04-27T13:22:14.961Z,101125.97
2023-04-27T13:24:42.274Z,101128.31
2023-04-27T13:27:08.961Z,101126.06
2023-04-27T13:29:35.796Z,101120.38
2023-04-27T13:32:02.559Z,101132.69
2023-04-27T13:34:29.271Z,101116.25
2023-04-27T13:36:55.941Z,101123.31
2023-04-27T13:39:22.797Z,101126.09
2023-04-27T13:41:52.397Z,101125.25
2023-04-27T13:44:27.496Z,101118.41
2023-04-27T13:46:54.345Z,101114.47
2023-04-27T13:49:20.882Z,101113.97
2023-04-27T13:51:47.433Z,101113.59
2023-04-27T13:54:14.263Z,101108.47
2023-04-27T13:56:41.147Z,101112.28
2023-04-27T13:59:09.384Z,101110.84
2023-04-27T14:01:40.195Z,101111.47
2023-04-27T14:04:07.500Z,101112.19
2023-04-27T14:06:42.939Z,101099.97
2023-04-27T14:09:09.566Z,101100.50
2023-04-27T14:11:48.593Z,101110.44
2023-04-27T14:14:22.410Z,101105.38
2023-04-27T14:16:51.001Z,101104.44
2023-04-27T14:19:18.679Z,101102.91
2023-04-27T14:21:45.248Z,101093.91
2023-04-27T14:24:11.835Z,101101.88
2023-04-27T14:26:38.426Z,101093.34
2023-04-27T14:29:05.036Z,101101.75
2023-04-27T14:31:33.467Z,101096.88
2023-04-27T14:34:00.169Z,101093.50
2023-04-27T14:36:27.358Z,101103.81
2023-04-27T14:38:53.952Z,101095.56
2023-04-27T14:41:20.516Z,101088.47
2023-04-27T14:43:48.977Z,101083.16
2023-04-27T14:46:21.242Z,101076.03
2023-04-27T14:48:49.061Z,101073.22
2023-04-27T14:51:16.337Z,101077.41
2023-04-27T14:53:44.000Z,101079.47
2023-04-27T14:56:13.738Z,101075.34
2023-04-27T14:58:41.473Z,101078.59
2023-04-27T15:01:08.125Z,101079.81
2023-04-27T15:03:34.965Z,101083.88
2023-04-27T15:06:01.994Z,101069.72
2023-04-27T15:08:30.681Z,101082.44
2023-04-27T15:11:00.021Z,101080.16
2023-04-27T15:13:27.603Z,101084.63
2023-04-27T15:15:58.669Z,101078.28
2023-04-27T15:18:25.725Z,101077.75
2023-04-27T15:20:52.727Z,101081.31
2023-04-27T15:23:19.856Z,101077.09
2023-04-27T15:25:46.984Z,101076.88
2023-04-27T15:28:14.454Z,101070.69
2023-04-27T15:30:41.624Z,101073.94
2023-04-27T15:33:10.191Z,101077.63
2023-04-27T15:35:41.411Z,101067.38
2023-04-27T15:38:09.232Z,101074.25
2023-04-27T15:40:36.037Z,101073.00
2023-04-27T15:43:02.782Z,101070.69
2023-04-27T15:45:29.393Z,101069.34
2023-04-27T15:47:56.349Z,101073.66
2023-04-27T15:50:23.104Z,101072.84
2023-04-27T15:52:50.705Z,101066.56
2023-04-27T15:55:17.515Z,101083.53
2023-04-27T15:57:44.286Z,101065.44
2023-04-27T16:00:11.952Z,101067.63
2023-04-27T16:02:39.342Z,101062.28
2023-04-27T16:05:07.389Z,101064.78
2023-04-27T16:07:39.538Z,101069.25
2023-04-27T16:10:06.886Z,101059.22
2023-04-27T16:12:33.509Z,101064.94
2023-04-27T16:15:00.905Z,101065.63
2023-04-27T16:17:28.808Z,101051.75
2023-04-27T16:19:55.628Z,101048.97
2023-04-27T16:22:24.422Z,101046.72
2023-04-27T16:24:51.029Z,101041.81
2023-04-27T16:27:17.681Z,101039.69
2023-04-27T16:29:44.545Z,101041.50
2023-04-27T16:32:11.268Z,101035.53
2023-04-27T16:34:38.295Z,101040.28
2023-04-27T16:37:04.962Z,101030.63
2023-04-27T16:39:31.576Z,101037.00
2023-04-27T16:41:58.217Z,101029.50
2023-04-27T16:44:24.895Z,101031.19
2023-04-27T16:46:56.331Z,101030.75
2023-04-27T16:49:22.920Z,101036.06
2023-04-27T16:51:54.421Z,101043.13
2023-04-27T16:54:21.050Z,101039.81
2023-04-27T16:56:50.062Z,101045.97
2023-04-27T16:59:19.466Z,101046.19
2023-04-27T17:01:46.120Z,101040.94
2023-04-27T17:04:12.972Z,101041.88
2023-04-27T17:06:40.926Z,101048.50
2023-04-27T17:09:10.387Z,101040.53
2023-04-27T17:11:37.413Z,101044.25
2023-04-27T17:14:03.996Z,101044.94
2023-04-27T17:16:30.604Z,101051.16
2023-04-27T17:18:57.570Z,101049.81
2023-04-27T17:21:26.123Z,101049.03
2023-04-27T17:23:54.336Z,101047.56
2023-04-27T17:26:21.661Z,101050.38
2023-04-27T17:28:48.975Z,101051.16
2023-04-27T17:31:17.507Z,101055.38
2023-04-27T17:33:45.364Z,101060.50
2023-04-27T17:36:12.633Z,101064.53
2023-04-27T17:38:41.435Z,101060.25
2023-04-27T17:41:08.099Z,101051.47
2023-04-27T17:43:34.619Z,101063.25
2023-04-27T17:46:01.338Z,101059.97
2023-04-27T17:48:27.907Z,101060.16
2023-04-27T17:50:54.582Z,101062.38
2023-04-27T17:53:21.110Z,101057.09
2023-04-27T17:55:47.982Z,101043.75
2023-04-27T17:58:15.589Z,101052.44
2023-04-27T18:00:43.313Z,101043.22
2023-04-27T18:03:11.532Z,101047.00
2023-04-27T18:05:38.971Z,101033.97
2023-04-27T18:08:05.953Z,101032.94
2023-04-27T18:10:32.743Z,101034.09
2023-04-27T18:12:59.446Z,101040.66
2023-04-27T18:15:26.044Z,101034.19
2023-04-27T18:17:52.590Z,101029.06
2023-04-27T18:20:19.241Z,101035.72
2023-04-27T18:22:45.973Z,101026.84
2023-04-27T18:25:13.307Z,101041.38
2023-04-27T18:27:39.866Z,101032.22
2023-04-27T18:30:08.411Z,101032.66
2023-04-27T18:32:36.016Z,101035.06
2023-04-27T18:35:03.040Z,101038.16
2023-04-27T18:37:29.751Z,101043.44
2023-04-27T18:39:56.363Z,101040.53
2023-04-27T18:42:23.475Z,101035.41
2023-04-27T18:44:51.866Z,101044.66
2023-04-27T18:47:18.412Z,101032.59
2023-04-27T18:49:44.970Z,101038.16
2023-04-27T18:52:11.736Z,101048.25
2023-04-27T18:54:38.730Z,101038.56
2023-04-27T18:57:05.444Z,101047.03
2023-04-27T18:59:32.053Z,101042.75
2023-04-27T19:01:58.644Z,101046.53
2023-04-27T19:04:26.270Z,101050.09
2023-04-27T19:06:52.913Z,101047.94
2023-04-27T19:09:19.495Z,101049.97
2023-04-27T19:11:49.464Z,101049.28
2023-04-27T19:14:19.844Z,101061.03
2023-04-27T19:16:46.617Z,101053.75
2023-04-27T19:19:13.456Z,101050.53
2023-04-27T19:21:45.781Z,101050.22
2023-04-27T19:24:12.465Z,101049.94
2023-04-27T19:26:39.070Z,101055.16
2023-04-27T19:29:05.899Z,101055.63
2023-04-27T19:31:32.522Z,101045.16
2023-04-27T19:34:04.124Z,101048.97
2023-04-27T19:36:31.922Z,101053.69
2023-04-27T19:38:58.432Z,101048.97
2023-04-27T19:41:25.306Z,101044.66
2023-04-27T19:43:51.903Z,101053.53
2023-04-27T19:46:18.589Z,101054.03
2023-04-27T19:48:45.172Z,101050.69
2023-04-27T19:51:11.872Z,101045.44
2023-04-27T19:53:38.696Z,101051.38
2023-04-27T19:56:05.370Z,101044.41
2023-04-27T19:58:32.058Z,101039.16
2023-04-27T20:00:58.744Z,101041.31
2023-04-27T20:03:25.511Z,101040.81
2023-04-27T20:05:52.734Z,101032.75
2023-04-27T20:08:19.749Z,101022.84
2023-04-27T20:10:46.389Z,101025.13
2023-04-27T20:13:12.926Z,101025.38
2023-04-27T20:15:39.504Z,101023.03
2023-04-27T20:18:13.398Z,101026.25
2023-04-27T20:20:41.999Z,101025.91
2023-04-27T20:23:08.643Z,101020.88
2023-04-27T20:25:35.225Z,101019.56
2023-04-27T20:28:01.956Z,101024.53
2023-04-27T20:30:28.623Z,101024.69
2023-04-27T20:32:56.501Z,101016.84
2023-04-27T20:35:24.498Z,101022.66
2023-04-27T20:37:52.074Z,101026.66
2023-04-27T20:40:19.020Z,101016.63
2023-04-27T20:42:45.966Z,101022.34
2023-04-27T20:45:13.242Z,101021.84
2023-04-27T20:47:40.130Z,101026.19
2023-04-27T20:50:07.855Z,101015.19
2023-04-27T20:52:34.907Z,101018.59
2023-04-27T20:55:01.852Z,101023.09
2023-04-27T20:57:30.739Z,101021.78
2023-04-27T20:59:57.374Z,101022.69
2023-04-27T21:02:24.021Z,101028.16
2023-04-27T21:04:51.036Z,101026.47
2023-04-27T21:07:17.788Z,101021.69
2023-04-27T21:09:44.493Z,101018.63
2023-04-27T21:12:11.059Z,101021.47
2023-04-27T21:14:37.709Z,101017.09
2023-04-27T21:17:06.757Z,101022.78
2023-04-27T21:19:33.364Z,101030.56
2023-04-27T21:21:59.953Z,101028.50
2023-04-27T21:24:26.772Z,101029.84
2023-04-27T21:26:53.410Z,101022.88
2023-04-27T21:29:20.003Z,101027.06
2023-04-27T21:31:46.560Z,101020.19
2023-04-27T21:34:13.331Z,101017.81
2023-04-27T21:36:40.057Z,101016.25
2023-04-27T21:39:06.716Z,101014.41
2023-04-27T21:41:36.726Z,101011.69
2023-04-27T21:44:03.602Z,101011.94
2023-04-27T21:46:30.173Z,101009.22
2023-04-27T21:48:56.796Z,101017.47
2023-04-27T21:51:26.470Z,101011.72
2023-04-27T21:53:53.051Z,101007.91
2023-04-27T21:56:19.613Z,101013.06
2023-04-27T21:58:46.434Z,101017.56
2023-04-27T22:01:13.199Z,101015.41
2023-04-27T22:03:39.915Z,101007.38
2023-04-27T22:06:07.515Z,101010.00
2023-04-27T22:08:37.231Z,101008.88
2023-04-27T22:11:03.925Z,101005.28
2023-04-27T22:13:32.963Z,101007.41
2023-04-27T22:15:59.633Z,100997.59
2023-04-27T22:18:26.288Z,101005.38
2023-04-27T22:20:54.460Z,101003.47
2023-04-27T22:23:21.083Z,100998.16
2023-04-27T22:25:47.725Z,100997.38
2023-04-27T22:28:15.266Z,100991.47
2023-04-27T22:30:42.240Z,100997.78
2023-04-27T22:33:09.522Z,100995.06
2023-04-27T22:35:37.086Z,100990.84
2023-04-27T22:38:03.905Z,100991.34
2023-04-27T22:40:30.491Z,100989.88
2023-04-27T22:42:59.772Z,100990.47
2023-04-27T22:45:26.370Z,100978.97
2023-04-27T22:47:55.847Z,100982.00
2023-04-27T22:50:25.272Z,100977.44
2023-04-27T22:52:53.086Z,100976.00
2023-04-27T22:55:21.674Z,100972.47
2023-04-27T22:57:49.968Z,100973.69
2023-04-27T23:00:16.557Z,100964.44
2023-04-27T23:02:43.401Z,100962.69
2023-04-27T23:05:11.045Z,100953.97
2023-04-27T23:07:38.159Z,100952.84
2023-04-27T23:10:08.247Z,100947.03
2023-04-27T23:12:35.124Z,100951.94
2023-04-27T23:15:01.713Z,100955.59
2023-04-27T23:17:33.748Z,100948.13
2023-04-27T23:20:01.534Z,100946.84
2023-04-27T23:22:28.224Z,100935.50
2023-04-27T23:24:54.854Z,100937.47
2023-04-27T23:27:23.604Z,100935.81
2023-04-27T23:29:50.214Z,100927.81
2023-04-27T23:32:17.146Z,100925.03
2023-04-27T23:34:43.821Z,100922.09
2023-04-27T23:37:10.427Z,100919.63
2023-04-27T23:39:42.289Z,100930.53
2023-04-27T23:42:09.174Z,100925.13
2023-04-27T23:44:35.752Z,100924.47
2023-04-27T23:47:02.367Z,100921.50
2023-04-27T23:49:28.882Z,100916.47
2023-04-27T23:51:55.539Z,100910.63
2023-04-27T23:54:22.198Z,100914.56
2023-04-27T23:56:51.930Z,100912.69
2023-04-27T23:59:23.743Z,100909.75
